Terminal Aerodrome Forecast
Issued by NWS Wilmington, OH

Current Version | Previous Version | Text Only | Print | Product List | Glossary Off
Versions: 1 2 3 4 5 6 7 8 9 10 11 12 13 14 15 16 17 18 19 20 21

000
FTUS41 KILN 211739
TAFILN
TAF
KILN 211739Z 2118/2218 23012KT P6SM SCT050 BKN200
     FM220300 19005KT P6SM SCT050 SCT100
     FM221000 20007KT P6SM VCSH BKN040 OVC100
      TEMPO 2211/2215 5SM -SHRA BR BKN025 OVC040
     FM221500 23012G20KT P6SM BKN025 OVC050=

USA.gov is the U.S. government's official web portal to all federal, state and local government web resources and services.